sensor_id;sensor_type;location;lat;lon;timestamp;temperature;humidity
21353;DHT22;10834;52.268;6.770;2022-12-29T00:00:07;10.70;99.90
21353;DHT22;10834;52.268;6.770;2022-12-29T00:02:54;10.70;99.90
21353;DHT22;10834;52.268;6.770;2022-12-29T00:05:40;10.70;99.90
21353;DHT22;10834;52.268;6.770;2022-12-29T00:08:26;10.70;99.90
21353;DHT22;10834;52.268;6.770;2022-12-29T00:11:26;10.80;99.90
21353;DHT22;10834;52.268;6.770;2022-12-29T00:14:13;10.80;99.90
21353;DHT22;10834;52.268;6.770;2022-12-29T00:17:18;10.80;99.90
21353;DHT22;10834;52.268;6.770;2022-12-29T00:20:04;10.80;99.90
21353;DHT22;10834;52.268;6.770;2022-12-29T00:23:09;10.80;99.90
21353;DHT22;10834;52.268;6.770;2022-12-29T00:26:17;10.80;99.90
21353;DHT22;10834;52.268;6.770;2022-12-29T00:29:21;10.80;99.90
21353;DHT22;10834;52.268;6.770;2022-12-29T00:32:25;10.80;99.90
21353;DHT22;10834;52.268;6.770;2022-12-29T00:35:34;10.80;99.90
21353;DHT22;10834;52.268;6.770;2022-12-29T00:38:23;10.80;99.90
21353;DHT22;10834;52.268;6.770;2022-12-29T00:41:28;10.80;99.90
21353;DHT22;10834;52.268;6.770;2022-12-29T00:44:32;10.80;99.90
21353;DHT22;10834;52.268;6.770;2022-12-29T00:47:18;10.70;99.90
21353;DHT22;10834;52.268;6.770;2022-12-29T00:50:04;10.70;99.90
21353;DHT22;10834;52.268;6.770;2022-12-29T00:52:50;10.70;99.90
21353;DHT22;10834;52.268;6.770;2022-12-29T00:55:37;10.70;99.90
21353;DHT22;10834;52.268;6.770;2022-12-29T00:58:27;10.80;99.90
21353;DHT22;10834;52.268;6.770;2022-12-29T01:01:13;10.80;99.90
21353;DHT22;10834;52.268;6.770;2022-12-29T01:03:59;10.80;99.90
21353;DHT22;10834;52.268;6.770;2022-12-29T01:06:45;10.80;99.90
21353;DHT22;10834;52.268;6.770;2022-12-29T01:09:32;10.80;99.90
21353;DHT22;10834;52.268;6.770;2022-12-29T01:12:36;10.80;99.90
21353;DHT22;10834;52.268;6.770;2022-12-29T01:15:30;10.80;99.90
21353;DHT22;10834;52.268;6.770;2022-12-29T01:18:16;10.80;99.90
21353;DHT22;10834;52.268;6.770;2022-12-29T01:21:04;10.80;99.90
21353;DHT22;10834;52.268;6.770;2022-12-29T01:23:51;10.80;99.90
21353;DHT22;10834;52.268;6.770;2022-12-29T01:26:37;10.80;99.90
21353;DHT22;10834;52.268;6.770;2022-12-29T01:29:23;10.80;99.90
21353;DHT22;10834;52.268;6.770;2022-12-29T01:32:09;10.70;99.90
21353;DHT22;10834;52.268;6.770;2022-12-29T01:34:55;10.70;99.90
21353;DHT22;10834;52.268;6.770;2022-12-29T01:37:41;10.70;99.90
21353;DHT22;10834;52.268;6.770;2022-12-29T01:40:27;10.70;99.90
21353;DHT22;10834;52.268;6.770;2022-12-29T01:43:14;10.70;99.90
21353;DHT22;10834;52.268;6.770;2022-12-29T01:46:00;10.70;99.90
21353;DHT22;10834;52.268;6.770;2022-12-29T01:48:48;10.70;99.90
21353;DHT22;10834;52.268;6.770;2022-12-29T01:51:45;10.70;99.90
21353;DHT22;10834;52.268;6.770;2022-12-29T01:54:37;10.60;99.90
21353;DHT22;10834;52.268;6.770;2022-12-29T01:57:34;10.60;99.90
21353;DHT22;10834;52.268;6.770;2022-12-29T02:00:21;10.50;99.90
21353;DHT22;10834;52.268;6.770;2022-12-29T02:03:08;10.40;99.90
21353;DHT22;10834;52.268;6.770;2022-12-29T02:06:02;10.40;99.90
21353;DHT22;10834;52.268;6.770;2022-12-29T02:08:52;10.30;99.90
21353;DHT22;10834;52.268;6.770;2022-12-29T02:11:39;10.30;99.90
21353;DHT22;10834;52.268;6.770;2022-12-29T02:14:25;10.40;99.90
21353;DHT22;10834;52.268;6.770;2022-12-29T02:17:37;10.40;99.90
21353;DHT22;10834;52.268;6.770;2022-12-29T02:30:07;10.30;99.90
21353;DHT22;10834;52.268;6.770;2022-12-29T02:32:59;10.40;99.90
21353;DHT22;10834;52.268;6.770;2022-12-29T02:39:33;10.40;99.90
21353;DHT22;10834;52.268;6.770;2022-12-29T02:46:47;10.50;99.90
21353;DHT22;10834;52.268;6.770;2022-12-29T02:49:06;10.60;99.90
21353;DHT22;10834;52.268;6.770;2022-12-29T02:52:07;10.60;99.90
21353;DHT22;10834;52.268;6.770;2022-12-29T02:54:54;10.60;99.90
21353;DHT22;10834;52.268;6.770;2022-12-29T02:57:40;10.60;99.90
21353;DHT22;10834;52.268;6.770;2022-12-29T03:00:26;10.60;99.90
21353;DHT22;10834;52.268;6.770;2022-12-29T03:09:26;10.70;99.90
21353;DHT22;10834;52.268;6.770;2022-12-29T03:12:30;10.70;99.90
21353;DHT22;10834;52.268;6.770;2022-12-29T03:15:47;10.70;99.90
21353;DHT22;10834;52.268;6.770;2022-12-29T03:18:55;10.70;99.90
21353;DHT22;10834;52.268;6.770;2022-12-29T03:21:44;10.70;99.90
21353;DHT22;10834;52.268;6.770;2022-12-29T03:24:52;10.60;99.90
21353;DHT22;10834;52.268;6.770;2022-12-29T03:27:49;10.70;99.90
21353;DHT22;10834;52.268;6.770;2022-12-29T03:30:38;10.70;99.90
21353;DHT22;10834;52.268;6.770;2022-12-29T03:33:27;10.70;99.90
21353;DHT22;10834;52.268;6.770;2022-12-29T03:36:21;10.70;99.90
21353;DHT22;10834;52.268;6.770;2022-12-29T03:39:13;10.70;99.90
21353;DHT22;10834;52.268;6.770;2022-12-29T03:42:03;10.80;99.90
21353;DHT22;10834;52.268;6.770;2022-12-29T03:44:54;10.80;99.90
21353;DHT22;10834;52.268;6.770;2022-12-29T03:47:41;10.90;99.90
21353;DHT22;10834;52.268;6.770;2022-12-29T03:50:27;10.90;99.90
21353;DHT22;10834;52.268;6.770;2022-12-29T03:53:14;11.00;99.90
21353;DHT22;10834;52.268;6.770;2022-12-29T03:56:00;11.00;99.90
21353;DHT22;10834;52.268;6.770;2022-12-29T03:58:45;11.00;99.90
21353;DHT22;10834;52.268;6.770;2022-12-29T04:01:31;11.00;99.90
21353;DHT22;10834;52.268;6.770;2022-12-29T04:04:17;11.10;99.90
21353;DHT22;10834;52.268;6.770;2022-12-29T04:07:04;11.00;99.90
21353;DHT22;10834;52.268;6.770;2022-12-29T04:09:50;11.10;99.90
21353;DHT22;10834;52.268;6.770;2022-12-29T04:12:36;11.10;99.90
21353;DHT22;10834;52.268;6.770;2022-12-29T04:15:22;11.00;99.90
21353;DHT22;10834;52.268;6.770;2022-12-29T04:18:09;11.00;99.90
21353;DHT22;10834;52.268;6.770;2022-12-29T04:20:55;11.00;99.90
21353;DHT22;10834;52.268;6.770;2022-12-29T04:23:48;11.10;99.90
21353;DHT22;10834;52.268;6.770;2022-12-29T04:26:34;11.10;99.90
21353;DHT22;10834;52.268;6.770;2022-12-29T04:29:20;11.10;99.90
21353;DHT22;10834;52.268;6.770;2022-12-29T04:32:06;11.10;99.90
21353;DHT22;10834;52.268;6.770;2022-12-29T04:34:52;11.10;99.90
21353;DHT22;10834;52.268;6.770;2022-12-29T04:37:38;11.10;99.90
21353;DHT22;10834;52.268;6.770;2022-12-29T04:40:25;11.10;99.90
21353;DHT22;10834;52.268;6.770;2022-12-29T04:43:12;11.10;99.90
21353;DHT22;10834;52.268;6.770;2022-12-29T04:45:58;11.10;99.90
21353;DHT22;10834;52.268;6.770;2022-12-29T04:48:44;11.10;99.90
21353;DHT22;10834;52.268;6.770;2022-12-29T04:51:30;11.00;99.90
21353;DHT22;10834;52.268;6.770;2022-12-29T04:54:16;11.00;99.90
21353;DHT22;10834;52.268;6.770;2022-12-29T04:57:02;10.90;99.90
21353;DHT22;10834;52.268;6.770;2022-12-29T04:59:48;10.90;99.90
21353;DHT22;10834;52.268;6.770;2022-12-29T05:02:34;10.80;99.90
21353;DHT22;10834;52.268;6.770;2022-12-29T05:05:20;10.80;99.90
21353;DHT22;10834;52.268;6.770;2022-12-29T05:08:06;10.70;99.90
21353;DHT22;10834;52.268;6.770;2022-12-29T05:10:52;10.70;99.90
21353;DHT22;10834;52.268;6.770;2022-12-29T05:13:38;10.70;99.90
21353;DHT22;10834;52.268;6.770;2022-12-29T05:16:24;10.70;99.90
21353;DHT22;10834;52.268;6.770;2022-12-29T05:19:10;10.70;99.90
21353;DHT22;10834;52.268;6.770;2022-12-29T05:21:56;10.80;99.90
21353;DHT22;10834;52.268;6.770;2022-12-29T05:24:42;10.80;99.90
21353;DHT22;10834;52.268;6.770;2022-12-29T05:27:29;10.80;99.90
21353;DHT22;10834;52.268;6.770;2022-12-29T05:30:15;10.70;99.90
21353;DHT22;10834;52.268;6.770;2022-12-29T05:33:01;10.70;99.90
21353;DHT22;10834;52.268;6.770;2022-12-29T05:35:47;10.60;99.90
21353;DHT22;10834;52.268;6.770;2022-12-29T05:38:34;10.60;99.90
21353;DHT22;10834;52.268;6.770;2022-12-29T05:41:20;10.50;99.90
21353;DHT22;10834;52.268;6.770;2022-12-29T05:44:06;10.40;99.90
21353;DHT22;10834;52.268;6.770;2022-12-29T05:46:52;10.40;99.90
21353;DHT22;10834;52.268;6.770;2022-12-29T05:49:38;10.30;99.90
21353;DHT22;10834;52.268;6.770;2022-12-29T05:52:24;10.30;99.90
21353;DHT22;10834;52.268;6.770;2022-12-29T05:55:11;10.30;99.90
21353;DHT22;10834;52.268;6.770;2022-12-29T05:57:57;10.20;99.90
21353;DHT22;10834;52.268;6.770;2022-12-29T06:00:43;10.10;99.90
21353;DHT22;10834;52.268;6.770;2022-12-29T06:03:29;10.00;99.90
21353;DHT22;10834;52.268;6.770;2022-12-29T06:06:15;10.00;99.90
21353;DHT22;10834;52.268;6.770;2022-12-29T06:09:01;9.90;99.90
21353;DHT22;10834;52.268;6.770;2022-12-29T06:11:47;9.90;99.90
21353;DHT22;10834;52.268;6.770;2022-12-29T06:14:33;9.90;99.90
21353;DHT22;10834;52.268;6.770;2022-12-29T06:17:19;9.80;99.90
21353;DHT22;10834;52.268;6.770;2022-12-29T06:20:06;9.70;99.90
21353;DHT22;10834;52.268;6.770;2022-12-29T06:22:52;9.50;99.90
21353;DHT22;10834;52.268;6.770;2022-12-29T06:25:39;9.40;99.90
21353;DHT22;10834;52.268;6.770;2022-12-29T06:28:25;9.30;99.90
21353;DHT22;10834;52.268;6.770;2022-12-29T06:31:11;9.20;99.90
21353;DHT22;10834;52.268;6.770;2022-12-29T06:33:57;9.10;99.90
21353;DHT22;10834;52.268;6.770;2022-12-29T06:36:43;9.00;99.90
21353;DHT22;10834;52.268;6.770;2022-12-29T06:39:29;8.90;99.90
21353;DHT22;10834;52.268;6.770;2022-12-29T06:42:15;8.90;99.90
21353;DHT22;10834;52.268;6.770;2022-12-29T06:45:01;8.80;99.90
21353;DHT22;10834;52.268;6.770;2022-12-29T06:47:47;8.90;99.90
21353;DHT22;10834;52.268;6.770;2022-12-29T06:50:33;9.00;99.90
21353;DHT22;10834;52.268;6.770;2022-12-29T06:53:19;9.00;99.90
21353;DHT22;10834;52.268;6.770;2022-12-29T06:56:05;9.10;99.90
21353;DHT22;10834;52.268;6.770;2022-12-29T06:58:51;9.10;99.90
21353;DHT22;10834;52.268;6.770;2022-12-29T07:01:37;9.20;99.90
21353;DHT22;10834;52.268;6.770;2022-12-29T07:04:23;9.30;99.90
21353;DHT22;10834;52.268;6.770;2022-12-29T07:07:10;9.40;99.90
21353;DHT22;10834;52.268;6.770;2022-12-29T07:09:56;9.40;99.90
21353;DHT22;10834;52.268;6.770;2022-12-29T07:12:42;9.40;99.90
21353;DHT22;10834;52.268;6.770;2022-12-29T07:15:28;9.40;99.90
21353;DHT22;10834;52.268;6.770;2022-12-29T07:18:14;9.40;99.90
21353;DHT22;10834;52.268;6.770;2022-12-29T07:21:00;9.40;99.90
21353;DHT22;10834;52.268;6.770;2022-12-29T07:23:46;9.50;99.90
21353;DHT22;10834;52.268;6.770;2022-12-29T07:26:32;9.40;99.90
21353;DHT22;10834;52.268;6.770;2022-12-29T07:29:18;9.40;99.90
21353;DHT22;10834;52.268;6.770;2022-12-29T07:32:04;9.50;99.90
21353;DHT22;10834;52.268;6.770;2022-12-29T07:34:51;9.50;99.90
21353;DHT22;10834;52.268;6.770;2022-12-29T07:37:37;9.50;99.90
21353;DHT22;10834;52.268;6.770;2022-12-29T07:40:23;9.50;99.90
21353;DHT22;10834;52.268;6.770;2022-12-29T07:43:09;9.50;99.90
21353;DHT22;10834;52.268;6.770;2022-12-29T07:45:55;9.50;99.90
21353;DHT22;10834;52.268;6.770;2022-12-29T07:48:41;9.50;99.90
21353;DHT22;10834;52.268;6.770;2022-12-29T07:51:27;9.50;99.90
21353;DHT22;10834;52.268;6.770;2022-12-29T07:54:13;9.50;99.90
21353;DHT22;10834;52.268;6.770;2022-12-29T07:56:59;9.50;99.90
21353;DHT22;10834;52.268;6.770;2022-12-29T07:59:46;9.50;99.90
21353;DHT22;10834;52.268;6.770;2022-12-29T08:02:32;9.50;99.90
21353;DHT22;10834;52.268;6.770;2022-12-29T08:05:19;9.50;99.90
21353;DHT22;10834;52.268;6.770;2022-12-29T08:08:05;9.40;99.90
21353;DHT22;10834;52.268;6.770;2022-12-29T08:10:51;9.40;99.90
21353;DHT22;10834;52.268;6.770;2022-12-29T08:13:37;9.40;99.90
21353;DHT22;10834;52.268;6.770;2022-12-29T08:16:23;9.40;99.90
21353;DHT22;10834;52.268;6.770;2022-12-29T08:19:13;9.30;99.90
21353;DHT22;10834;52.268;6.770;2022-12-29T08:21:59;9.30;99.90
21353;DHT22;10834;52.268;6.770;2022-12-29T08:24:45;9.30;99.90
21353;DHT22;10834;52.268;6.770;2022-12-29T08:27:31;9.30;99.90
21353;DHT22;10834;52.268;6.770;2022-12-29T08:30:17;9.30;99.90
21353;DHT22;10834;52.268;6.770;2022-12-29T08:33:03;9.30;99.90
21353;DHT22;10834;52.268;6.770;2022-12-29T08:35:49;9.30;99.90
21353;DHT22;10834;52.268;6.770;2022-12-29T08:38:35;9.40;99.90
21353;DHT22;10834;52.268;6.770;2022-12-29T08:41:22;9.50;99.90
21353;DHT22;10834;52.268;6.770;2022-12-29T08:44:11;9.60;99.90
21353;DHT22;10834;52.268;6.770;2022-12-29T08:46:57;9.70;99.90
21353;DHT22;10834;52.268;6.770;2022-12-29T08:49:43;9.80;99.90
21353;DHT22;10834;52.268;6.770;2022-12-29T08:52:29;10.00;99.90
21353;DHT22;10834;52.268;6.770;2022-12-29T08:55:15;10.20;99.90
21353;DHT22;10834;52.268;6.770;2022-12-29T08:58:01;10.40;99.90
21353;DHT22;10834;52.268;6.770;2022-12-29T09:00:47;10.60;99.90
21353;DHT22;10834;52.268;6.770;2022-12-29T09:03:33;10.60;99.90
21353;DHT22;10834;52.268;6.770;2022-12-29T09:06:19;10.70;99.90
21353;DHT22;10834;52.268;6.770;2022-12-29T09:09:05;10.80;99.90
21353;DHT22;10834;52.268;6.770;2022-12-29T09:11:51;10.80;99.90
21353;DHT22;10834;52.268;6.770;2022-12-29T09:14:37;10.80;99.90
21353;DHT22;10834;52.268;6.770;2022-12-29T09:17:23;10.80;99.90
21353;DHT22;10834;52.268;6.770;2022-12-29T09:20:29;10.60;99.90
21353;DHT22;10834;52.268;6.770;2022-12-29T09:23:15;10.60;99.90
21353;DHT22;10834;52.268;6.770;2022-12-29T09:26:01;10.70;99.90
21353;DHT22;10834;52.268;6.770;2022-12-29T09:28:47;10.90;99.90
21353;DHT22;10834;52.268;6.770;2022-12-29T09:31:33;10.90;99.90
21353;DHT22;10834;52.268;6.770;2022-12-29T09:34:20;11.00;99.90
21353;DHT22;10834;52.268;6.770;2022-12-29T09:37:06;11.10;99.90
21353;DHT22;10834;52.268;6.770;2022-12-29T09:39:52;11.20;99.90
21353;DHT22;10834;52.268;6.770;2022-12-29T09:42:45;11.80;99.90
21353;DHT22;10834;52.268;6.770;2022-12-29T09:45:42;11.90;99.90
21353;DHT22;10834;52.268;6.770;2022-12-29T09:48:34;11.80;99.90
21353;DHT22;10834;52.268;6.770;2022-12-29T09:51:22;11.70;99.90
21353;DHT22;10834;52.268;6.770;2022-12-29T09:54:33;11.50;99.90
21353;DHT22;10834;52.268;6.770;2022-12-29T09:57:47;11.40;99.90
21353;DHT22;10834;52.268;6.770;2022-12-29T10:00:52;11.20;99.90
21353;DHT22;10834;52.268;6.770;2022-12-29T10:03:48;11.10;99.90
21353;DHT22;10834;52.268;6.770;2022-12-29T10:07:10;10.90;99.90
21353;DHT22;10834;52.268;6.770;2022-12-29T10:13:26;10.70;99.90
21353;DHT22;10834;52.268;6.770;2022-12-29T10:25:43;10.70;99.90
21353;DHT22;10834;52.268;6.770;2022-12-29T10:28:59;10.90;99.90
21353;DHT22;10834;52.268;6.770;2022-12-29T10:32:01;11.10;99.90
21353;DHT22;10834;52.268;6.770;2022-12-29T10:34:53;11.10;99.90
21353;DHT22;10834;52.268;6.770;2022-12-29T10:38:03;11.10;99.90
21353;DHT22;10834;52.268;6.770;2022-12-29T10:44:14;11.00;99.90
21353;DHT22;10834;52.268;6.770;2022-12-29T10:47:10;11.00;99.90
21353;DHT22;10834;52.268;6.770;2022-12-29T10:49:57;10.90;99.90
21353;DHT22;10834;52.268;6.770;2022-12-29T10:52:47;10.90;99.90
21353;DHT22;10834;52.268;6.770;2022-12-29T10:55:38;10.80;99.90
21353;DHT22;10834;52.268;6.770;2022-12-29T10:58:26;10.80;99.90
21353;DHT22;10834;52.268;6.770;2022-12-29T11:01:13;10.70;99.90
21353;DHT22;10834;52.268;6.770;2022-12-29T11:04:13;10.70;99.90
21353;DHT22;10834;52.268;6.770;2022-12-29T11:07:03;10.60;99.90
21353;DHT22;10834;52.268;6.770;2022-12-29T11:09:49;10.70;99.90
21353;DHT22;10834;52.268;6.770;2022-12-29T11:12:35;10.60;99.90
21353;DHT22;10834;52.268;6.770;2022-12-29T11:15:22;10.60;99.90
21353;DHT22;10834;52.268;6.770;2022-12-29T11:18:32;10.60;99.90
21353;DHT22;10834;52.268;6.770;2022-12-29T11:21:35;10.60;99.90
21353;DHT22;10834;52.268;6.770;2022-12-29T11:24:29;10.50;99.90
21353;DHT22;10834;52.268;6.770;2022-12-29T11:27:18;10.50;99.90
21353;DHT22;10834;52.268;6.770;2022-12-29T11:30:26;10.50;99.90
21353;DHT22;10834;52.268;6.770;2022-12-29T11:33:12;10.50;99.90
21353;DHT22;10834;52.268;6.770;2022-12-29T11:36:15;10.50;99.90
21353;DHT22;10834;52.268;6.770;2022-12-29T11:39:02;10.50;99.90
21353;DHT22;10834;52.268;6.770;2022-12-29T11:41:52;10.60;99.90
21353;DHT22;10834;52.268;6.770;2022-12-29T11:44:44;10.50;99.90
21353;DHT22;10834;52.268;6.770;2022-12-29T11:47:31;10.50;99.90
21353;DHT22;10834;52.268;6.770;2022-12-29T11:50:30;10.50;99.90
21353;DHT22;10834;52.268;6.770;2022-12-29T11:53:21;10.40;99.90
21353;DHT22;10834;52.268;6.770;2022-12-29T11:56:13;10.40;99.90
21353;DHT22;10834;52.268;6.770;2022-12-29T12:05:49;10.30;99.90
21353;DHT22;10834;52.268;6.770;2022-12-29T12:08:48;10.40;99.90
21353;DHT22;10834;52.268;6.770;2022-12-29T12:11:40;10.40;99.90
21353;DHT22;10834;52.268;6.770;2022-12-29T12:14:36;10.50;99.90
21353;DHT22;10834;52.268;6.770;2022-12-29T12:29:08;10.50;99.90
21353;DHT22;10834;52.268;6.770;2022-12-29T12:31:59;10.50;99.90
21353;DHT22;10834;52.268;6.770;2022-12-29T12:34:47;10.50;99.90
21353;DHT22;10834;52.268;6.770;2022-12-29T12:43:48;10.40;99.90
21353;DHT22;10834;52.268;6.770;2022-12-29T12:53:02;10.10;99.90
21353;DHT22;10834;52.268;6.770;2022-12-29T13:09:16;9.80;99.90
21353;DHT22;10834;52.268;6.770;2022-12-29T13:18:22;9.80;99.90
21353;DHT22;10834;52.268;6.770;2022-12-29T13:24:17;9.70;99.90
21353;DHT22;10834;52.268;6.770;2022-12-29T13:30:57;9.60;99.90
21353;DHT22;10834;52.268;6.770;2022-12-29T13:34:12;9.60;99.90
21353;DHT22;10834;52.268;6.770;2022-12-29T13:37:03;9.60;99.90
21353;DHT22;10834;52.268;6.770;2022-12-29T13:39:54;9.60;99.90
21353;DHT22;10834;52.268;6.770;2022-12-29T13:42:42;9.50;99.90
21353;DHT22;10834;52.268;6.770;2022-12-29T13:45:31;9.50;99.90
21353;DHT22;10834;52.268;6.770;2022-12-29T13:48:23;9.50;99.90
21353;DHT22;10834;52.268;6.770;2022-12-29T13:51:11;9.50;99.90
21353;DHT22;10834;52.268;6.770;2022-12-29T14:01:00;9.60;99.90
21353;DHT22;10834;52.268;6.770;2022-12-29T14:03:57;9.70;99.90
21353;DHT22;10834;52.268;6.770;2022-12-29T14:06:46;9.70;99.90
21353;DHT22;10834;52.268;6.770;2022-12-29T14:09:45;9.80;99.90
21353;DHT22;10834;52.268;6.770;2022-12-29T14:12:38;9.80;99.90
21353;DHT22;10834;52.268;6.770;2022-12-29T14:15:26;9.80;99.90
21353;DHT22;10834;52.268;6.770;2022-12-29T14:18:24;9.90;99.90
21353;DHT22;10834;52.268;6.770;2022-12-29T14:21:20;9.90;99.90
21353;DHT22;10834;52.268;6.770;2022-12-29T14:30:45;9.90;99.90
21353;DHT22;10834;52.268;6.770;2022-12-29T14:33:33;9.90;99.90
21353;DHT22;10834;52.268;6.770;2022-12-29T14:36:27;9.90;99.90
21353;DHT22;10834;52.268;6.770;2022-12-29T14:39:42;9.90;99.90
21353;DHT22;10834;52.268;6.770;2022-12-29T14:42:29;9.90;99.90
21353;DHT22;10834;52.268;6.770;2022-12-29T14:48:21;9.90;99.90
21353;DHT22;10834;52.268;6.770;2022-12-29T14:51:40;9.90;99.90
21353;DHT22;10834;52.268;6.770;2022-12-29T14:57:33;9.80;99.90
21353;DHT22;10834;52.268;6.770;2022-12-29T15:00:24;9.80;99.90
21353;DHT22;10834;52.268;6.770;2022-12-29T15:03:25;9.80;99.90
21353;DHT22;10834;52.268;6.770;2022-12-29T15:06:15;9.80;99.90
21353;DHT22;10834;52.268;6.770;2022-12-29T15:09:06;9.80;99.90
21353;DHT22;10834;52.268;6.770;2022-12-29T15:12:01;9.70;99.90
21353;DHT22;10834;52.268;6.770;2022-12-29T15:14:58;9.70;99.90
21353;DHT22;10834;52.268;6.770;2022-12-29T15:17:45;9.70;99.90
21353;DHT22;10834;52.268;6.770;2022-12-29T15:20:31;9.70;99.90
21353;DHT22;10834;52.268;6.770;2022-12-29T15:23:17;9.70;99.90
21353;DHT22;10834;52.268;6.770;2022-12-29T15:26:06;9.70;99.90
21353;DHT22;10834;52.268;6.770;2022-12-29T15:28:52;9.70;99.90
21353;DHT22;10834;52.268;6.770;2022-12-29T15:31:46;9.60;99.90
21353;DHT22;10834;52.268;6.770;2022-12-29T15:34:34;9.70;99.90
21353;DHT22;10834;52.268;6.770;2022-12-29T15:37:26;9.60;99.90
21353;DHT22;10834;52.268;6.770;2022-12-29T15:40:32;9.60;99.90
21353;DHT22;10834;52.268;6.770;2022-12-29T15:43:36;9.60;99.90
21353;DHT22;10834;52.268;6.770;2022-12-29T15:46:27;9.60;99.90
21353;DHT22;10834;52.268;6.770;2022-12-29T15:49:16;9.60;99.90
21353;DHT22;10834;52.268;6.770;2022-12-29T15:52:07;9.50;99.90
21353;DHT22;10834;52.268;6.770;2022-12-29T15:54:53;9.50;99.90
21353;DHT22;10834;52.268;6.770;2022-12-29T15:57:42;9.40;99.90
21353;DHT22;10834;52.268;6.770;2022-12-29T16:00:34;9.30;99.90
21353;DHT22;10834;52.268;6.770;2022-12-29T16:03:24;9.20;99.90
21353;DHT22;10834;52.268;6.770;2022-12-29T16:06:30;9.10;99.90
21353;DHT22;10834;52.268;6.770;2022-12-29T16:09:42;9.10;99.90
21353;DHT22;10834;52.268;6.770;2022-12-29T16:12:35;9.10;99.90
21353;DHT22;10834;52.268;6.770;2022-12-29T16:15:21;9.10;99.90
21353;DHT22;10834;52.268;6.770;2022-12-29T16:18:23;9.00;99.90
21353;DHT22;10834;52.268;6.770;2022-12-29T16:24:20;9.00;99.90
21353;DHT22;10834;52.268;6.770;2022-12-29T16:27:13;9.00;99.90
21353;DHT22;10834;52.268;6.770;2022-12-29T16:30:26;9.00;99.90
21353;DHT22;10834;52.268;6.770;2022-12-29T16:33:36;9.00;99.90
21353;DHT22;10834;52.268;6.770;2022-12-29T16:36:33;9.00;99.90
21353;DHT22;10834;52.268;6.770;2022-12-29T16:39:24;8.90;99.90
21353;DHT22;10834;52.268;6.770;2022-12-29T16:43:03;8.90;99.90
21353;DHT22;10834;52.268;6.770;2022-12-29T16:48:34;8.90;99.90
21353;DHT22;10834;52.268;6.770;2022-12-29T16:51:35;8.90;99.90
21353;DHT22;10834;52.268;6.770;2022-12-29T16:54:25;9.00;99.90
21353;DHT22;10834;52.268;6.770;2022-12-29T16:57:12;9.00;99.90
21353;DHT22;10834;52.268;6.770;2022-12-29T17:00:05;9.00;99.90
21353;DHT22;10834;52.268;6.770;2022-12-29T17:02:58;9.00;99.90
21353;DHT22;10834;52.268;6.770;2022-12-29T17:05:44;9.00;99.90
21353;DHT22;10834;52.268;6.770;2022-12-29T17:08:40;9.10;99.90
21353;DHT22;10834;52.268;6.770;2022-12-29T17:11:32;9.10;99.90
21353;DHT22;10834;52.268;6.770;2022-12-29T17:17:53;9.10;99.90
21353;DHT22;10834;52.268;6.770;2022-12-29T17:20:40;9.10;99.90
21353;DHT22;10834;52.268;6.770;2022-12-29T17:23:27;9.10;99.90
21353;DHT22;10834;52.268;6.770;2022-12-29T17:26:34;9.10;99.90
21353;DHT22;10834;52.268;6.770;2022-12-29T17:29:40;9.10;99.90
21353;DHT22;10834;52.268;6.770;2022-12-29T17:32:27;9.10;99.90
21353;DHT22;10834;52.268;6.770;2022-12-29T17:35:18;9.10;99.90
21353;DHT22;10834;52.268;6.770;2022-12-29T17:38:33;9.10;99.90
21353;DHT22;10834;52.268;6.770;2022-12-29T17:41:19;9.10;99.90
21353;DHT22;10834;52.268;6.770;2022-12-29T17:44:06;9.10;99.90
21353;DHT22;10834;52.268;6.770;2022-12-29T17:46:52;9.20;99.90
21353;DHT22;10834;52.268;6.770;2022-12-29T17:49:38;9.20;99.90
21353;DHT22;10834;52.268;6.770;2022-12-29T17:52:24;9.20;99.90
21353;DHT22;10834;52.268;6.770;2022-12-29T17:55:18;9.20;99.90
21353;DHT22;10834;52.268;6.770;2022-12-29T18:01:08;9.10;99.90
21353;DHT22;10834;52.268;6.770;2022-12-29T18:03:55;9.10;99.90
21353;DHT22;10834;52.268;6.770;2022-12-29T18:06:41;9.10;99.90
21353;DHT22;10834;52.268;6.770;2022-12-29T18:09:27;9.10;99.90
21353;DHT22;10834;52.268;6.770;2022-12-29T18:12:40;9.00;99.90
21353;DHT22;10834;52.268;6.770;2022-12-29T18:15:29;9.00;99.90
21353;DHT22;10834;52.268;6.770;2022-12-29T18:18:18;9.00;99.90
21353;DHT22;10834;52.268;6.770;2022-12-29T18:21:04;9.00;99.90
21353;DHT22;10834;52.268;6.770;2022-12-29T18:23:50;9.00;99.90
21353;DHT22;10834;52.268;6.770;2022-12-29T18:26:36;8.90;99.90
21353;DHT22;10834;52.268;6.770;2022-12-29T18:29:22;8.90;99.90
21353;DHT22;10834;52.268;6.770;2022-12-29T18:32:12;8.80;99.90
21353;DHT22;10834;52.268;6.770;2022-12-29T18:34:59;8.80;99.90
21353;DHT22;10834;52.268;6.770;2022-12-29T18:37:45;8.80;99.90
21353;DHT22;10834;52.268;6.770;2022-12-29T18:40:32;8.80;99.90
21353;DHT22;10834;52.268;6.770;2022-12-29T18:43:19;8.70;99.90
21353;DHT22;10834;52.268;6.770;2022-12-29T18:46:05;8.70;99.90
21353;DHT22;10834;52.268;6.770;2022-12-29T18:48:52;8.60;99.90
21353;DHT22;10834;52.268;6.770;2022-12-29T18:51:38;8.60;99.90
21353;DHT22;10834;52.268;6.770;2022-12-29T18:54:29;8.50;99.90
21353;DHT22;10834;52.268;6.770;2022-12-29T18:57:15;8.40;99.90
21353;DHT22;10834;52.268;6.770;2022-12-29T19:00:03;8.40;99.90
21353;DHT22;10834;52.268;6.770;2022-12-29T19:02:50;8.40;99.90
21353;DHT22;10834;52.268;6.770;2022-12-29T19:05:39;8.40;99.90
21353;DHT22;10834;52.268;6.770;2022-12-29T19:08:25;8.40;99.90
21353;DHT22;10834;52.268;6.770;2022-12-29T19:11:11;8.40;99.90
21353;DHT22;10834;52.268;6.770;2022-12-29T19:13:57;8.40;99.90
21353;DHT22;10834;52.268;6.770;2022-12-29T19:16:48;8.40;99.90
21353;DHT22;10834;52.268;6.770;2022-12-29T19:19:34;8.40;99.90
21353;DHT22;10834;52.268;6.770;2022-12-29T19:22:20;8.40;99.90
21353;DHT22;10834;52.268;6.770;2022-12-29T19:25:06;8.30;99.90
21353;DHT22;10834;52.268;6.770;2022-12-29T19:27:53;8.30;99.90
21353;DHT22;10834;52.268;6.770;2022-12-29T19:30:39;8.20;99.90
21353;DHT22;10834;52.268;6.770;2022-12-29T19:33:26;8.20;99.90
21353;DHT22;10834;52.268;6.770;2022-12-29T19:36:13;8.20;99.90
21353;DHT22;10834;52.268;6.770;2022-12-29T19:39:03;8.20;99.90
21353;DHT22;10834;52.268;6.770;2022-12-29T19:41:49;8.10;99.90
21353;DHT22;10834;52.268;6.770;2022-12-29T19:44:35;8.20;99.90
21353;DHT22;10834;52.268;6.770;2022-12-29T19:47:21;8.20;99.90
21353;DHT22;10834;52.268;6.770;2022-12-29T19:50:09;8.20;99.90
21353;DHT22;10834;52.268;6.770;2022-12-29T19:52:56;8.20;99.90
21353;DHT22;10834;52.268;6.770;2022-12-29T19:55:46;8.30;99.90
21353;DHT22;10834;52.268;6.770;2022-12-29T19:58:33;8.30;99.90
21353;DHT22;10834;52.268;6.770;2022-12-29T20:01:21;8.30;99.90
21353;DHT22;10834;52.268;6.770;2022-12-29T20:04:07;8.30;99.90
21353;DHT22;10834;52.268;6.770;2022-12-29T20:06:53;8.30;99.90
21353;DHT22;10834;52.268;6.770;2022-12-29T20:09:39;8.30;99.90
21353;DHT22;10834;52.268;6.770;2022-12-29T20:12:25;8.30;99.90